Time;durP1;ratioP1;P1;durP2;ratioP2;P2;SDS_P1;SDS_P2;PMS_P1;PMS_P2;Temp;Humidity;BMP_temperature;BMP_pressure;BME280_temperature;BME280_humidity;BME280_pressure;Samples;Min_cycle;Max_cycle;Signal;HPM_P1;HPM_P2
2023/08/04 00:00:31;;;;;;;3.83;0.77;;;;;;;;;;5131221;27;20053;-75
2023/08/04 00:02:58;;;;;;;4.82;0.73;;;;;;;;;;5131254;27;20077;-68
2023/08/04 00:05:24;;;;;;;5.82;0.98;;;;;;;;;;5130455;27;20060;-70
2023/08/04 00:07:51;;;;;;;2.53;0.73;;;;;;;;;;5130904;27;20050;-70
2023/08/04 00:10:18;;;;;;;4.15;0.95;;;;;;;;;;5130753;27;20051;-68
2023/08/04 00:12:45;;;;;;;4.68;0.85;;;;;;;;;;5131066;27;20122;-73
2023/08/04 00:15:12;;;;;;;3.80;0.75;;;;;;;;;;5130488;27;20658;-68
2023/08/04 00:17:39;;;;;;;3.10;0.60;;;;;;;;;;5130941;27;20490;-70
2023/08/04 00:20:08;;;;;;;6.10;1.00;;;;;;;;;;5130699;27;20050;-69
2023/08/04 00:22:35;;;;;;;3.45;0.93;;;;;;;;;;5130233;27;20126;-68
2023/08/04 00:25:02;;;;;;;3.05;1.00;;;;;;;;;;5130049;27;20049;-72
2023/08/04 00:27:29;;;;;;;3.22;0.70;;;;;;;;;;5130904;27;20047;-68
2023/08/04 00:29:55;;;;;;;4.15;0.77;;;;;;;;;;5130222;27;20047;-69
2023/08/04 00:32:22;;;;;;;5.53;1.00;;;;;;;;;;5130386;27;20568;-68
2023/08/04 00:34:49;;;;;;;6.00;0.88;;;;;;;;;;5130213;27;20092;-72
2023/08/04 00:37:15;;;;;;;4.38;0.90;;;;;;;;;;5130667;27;20043;-71
2023/08/04 00:39:42;;;;;;;2.03;0.60;;;;;;;;;;5129600;27;20395;-68
2023/08/04 00:42:09;;;;;;;3.55;0.80;;;;;;;;;;5130351;27;20046;-71
2023/08/04 00:44:36;;;;;;;3.13;0.80;;;;;;;;;;5130199;27;20043;-74
2023/08/04 00:47:04;;;;;;;5.00;1.05;;;;;;;;;;5130237;27;20050;-68
2023/08/04 00:49:31;;;;;;;4.55;0.82;;;;;;;;;;5130013;27;20398;-69
2023/08/04 00:51:59;;;;;;;5.32;0.80;;;;;;;;;;5130219;27;20494;-69
2023/08/04 00:54:25;;;;;;;7.65;0.88;;;;;;;;;;5129152;27;20203;-67
2023/08/04 00:56:54;;;;;;;3.58;0.70;;;;;;;;;;5130112;27;20125;-71
2023/08/04 00:59:20;;;;;;;4.75;0.80;;;;;;;;;;5129701;27;20765;-69
2023/08/04 01:01:49;;;;;;;4.20;0.75;;;;;;;;;;5130155;27;20058;-69
2023/08/04 01:04:18;;;;;;;6.00;0.90;;;;;;;;;;5129867;27;20108;-67
2023/08/04 01:06:51;;;;;;;7.10;0.90;;;;;;;;;;5129869;27;20055;-68
2023/08/04 01:09:27;;;;;;;3.80;0.80;;;;;;;;;;5130653;27;20099;-70
2023/08/04 01:12:06;;;;;;;2.08;0.60;;;;;;;;;;5130168;27;20078;-68
2023/08/04 01:14:34;;;;;;;5.80;0.60;;;;;;;;;;5129208;27;20050;-69
2023/08/04 01:17:03;;;;;;;4.10;0.85;;;;;;;;;;5129577;27;20043;-69
2023/08/04 01:19:30;;;;;;;3.38;0.85;;;;;;;;;;5129232;27;20043;-69
2023/08/04 01:21:56;;;;;;;5.28;0.98;;;;;;;;;;5129622;27;20043;-69
2023/08/04 01:24:26;;;;;;;2.00;0.57;;;;;;;;;;5129206;27;20380;-68
2023/08/04 01:26:55;;;;;;;3.90;0.95;;;;;;;;;;5129766;27;20286;-68
2023/08/04 01:29:23;;;;;;;3.70;0.63;;;;;;;;;;5129880;27;20259;-70
2023/08/04 01:31:51;;;;;;;3.30;0.80;;;;;;;;;;5128992;27;20051;-75
2023/08/04 01:34:18;;;;;;;4.50;0.77;;;;;;;;;;5129544;27;20051;-68
2023/08/04 01:36:45;;;;;;;4.13;0.73;;;;;;;;;;5129271;27;20089;-69
2023/08/04 01:39:12;;;;;;;3.05;0.93;;;;;;;;;;5129515;28;20043;-68
2023/08/04 01:41:38;;;;;;;6.72;1.00;;;;;;;;;;5129287;28;20047;-70
2023/08/04 01:44:05;;;;;;;6.20;1.00;;;;;;;;;;5129564;28;20043;-72
2023/08/04 01:46:32;;;;;;;4.10;0.80;;;;;;;;;;5129420;28;20051;-69
2023/08/04 01:48:58;;;;;;;4.68;0.95;;;;;;;;;;5129186;28;20549;-71
2023/08/04 01:51:25;;;;;;;5.75;0.80;;;;;;;;;;5128998;28;20051;-72
2023/08/04 01:53:52;;;;;;;6.22;1.27;;;;;;;;;;5128997;28;20044;-69
2023/08/04 01:56:19;;;;;;;7.65;1.00;;;;;;;;;;5128851;28;20069;-69
2023/08/04 01:58:45;;;;;;;3.80;0.90;;;;;;;;;;5129292;28;20047;-69
2023/08/04 02:01:12;;;;;;;7.45;0.93;;;;;;;;;;5129220;28;20414;-70
2023/08/04 02:03:39;;;;;;;1.88;0.50;;;;;;;;;;5129552;28;20142;-71
2023/08/04 02:06:05;;;;;;;4.78;0.95;;;;;;;;;;5128998;28;20051;-73
2023/08/04 02:08:32;;;;;;;6.20;1.10;;;;;;;;;;5129051;28;20046;-70
2023/08/04 02:10:59;;;;;;;3.00;0.80;;;;;;;;;;5128651;28;20043;-71
2023/08/04 02:13:25;;;;;;;2.78;0.60;;;;;;;;;;5128920;28;20047;-73
2023/08/04 02:15:52;;;;;;;5.82;0.77;;;;;;;;;;5128989;28;20070;-71
2023/08/04 02:18:19;;;;;;;5.60;1.08;;;;;;;;;;5129454;28;20051;-70
2023/08/04 02:20:45;;;;;;;3.65;0.70;;;;;;;;;;5128668;28;20043;-69
2023/08/04 02:23:12;;;;;;;3.28;0.88;;;;;;;;;;5128803;28;20039;-69
2023/08/04 02:25:40;;;;;;;4.38;0.90;;;;;;;;;;5128541;28;20104;-69
2023/08/04 02:28:07;;;;;;;2.78;0.70;;;;;;;;;;5130880;27;20053;-72
2023/08/04 02:30:34;;;;;;;7.65;0.95;;;;;;;;;;5132795;27;20072;-69
2023/08/04 02:33:00;;;;;;;3.15;0.73;;;;;;;;;;5132668;27;20054;-71
2023/08/04 02:35:27;;;;;;;5.70;0.70;;;;;;;;;;5132625;27;20126;-75
2023/08/04 02:37:54;;;;;;;3.58;0.70;;;;;;;;;;5132745;27;20047;-71
2023/08/04 02:40:21;;;;;;;3.42;0.80;;;;;;;;;;5132952;27;20044;-76
2023/08/04 02:42:48;;;;;;;5.55;1.27;;;;;;;;;;5132591;27;20058;-69
2023/08/04 02:45:14;;;;;;;3.42;0.80;;;;;;;;;;5132255;27;20391;-71
2023/08/04 02:47:41;;;;;;;3.90;0.73;;;;;;;;;;5132511;27;20047;-70
2023/08/04 02:50:08;;;;;;;3.08;0.60;;;;;;;;;;5132418;27;20519;-71
2023/08/04 02:52:35;;;;;;;3.20;0.90;;;;;;;;;;5132273;27;20071;-72
2023/08/04 02:55:01;;;;;;;6.22;0.93;;;;;;;;;;5132243;27;20123;-69
2023/08/04 02:57:31;;;;;;;4.45;0.80;;;;;;;;;;5131812;27;20058;-69
2023/08/04 02:59:58;;;;;;;2.42;0.85;;;;;;;;;;5132681;27;20043;-72
2023/08/04 03:02:26;;;;;;;3.15;0.73;;;;;;;;;;5133604;27;20110;-70
2023/08/04 03:04:52;;;;;;;2.60;0.63;;;;;;;;;;5132245;27;20047;-79
2023/08/04 03:07:19;;;;;;;1.13;0.50;;;;;;;;;;5131763;27;20043;-74
2023/08/04 03:09:46;;;;;;;2.85;1.13;;;;;;;;;;5131964;27;20039;-76
2023/08/04 03:12:13;;;;;;;4.35;0.80;;;;;;;;;;5131945;27;20047;-69
2023/08/04 03:14:39;;;;;;;10.15;1.05;;;;;;;;;;5132347;27;20039;-70
2023/08/04 03:17:06;;;;;;;4.90;0.77;;;;;;;;;;5131708;27;20057;-71
2023/08/04 03:19:32;;;;;;;2.88;0.70;;;;;;;;;;5131849;27;20043;-74
2023/08/04 03:21:59;;;;;;;3.95;0.70;;;;;;;;;;5131438;27;20145;-69
2023/08/04 03:24:26;;;;;;;2.90;0.77;;;;;;;;;;5131332;27;20050;-74
2023/08/04 03:26:52;;;;;;;2.53;0.65;;;;;;;;;;5131331;27;20096;-72
2023/08/04 03:29:19;;;;;;;3.53;0.80;;;;;;;;;;5132102;27;20129;-69
2023/08/04 03:31:46;;;;;;;4.05;0.85;;;;;;;;;;5131477;27;20130;-70
2023/08/04 03:34:13;;;;;;;7.43;0.80;;;;;;;;;;5131594;27;20057;-72
2023/08/04 03:36:40;;;;;;;3.30;0.98;;;;;;;;;;5131304;27;20134;-69
2023/08/04 03:39:06;;;;;;;3.75;1.17;;;;;;;;;;5130762;27;20055;-73
2023/08/04 03:41:33;;;;;;;1.27;0.63;;;;;;;;;;5131818;27;20476;-70
2023/08/04 03:43:59;;;;;;;3.80;0.80;;;;;;;;;;5131915;27;20055;-73
2023/08/04 03:46:26;;;;;;;3.45;0.88;;;;;;;;;;5131117;27;20423;-76
2023/08/04 03:48:53;;;;;;;4.05;0.98;;;;;;;;;;5131559;27;20051;-70
2023/08/04 03:51:20;;;;;;;3.55;1.00;;;;;;;;;;5130873;27;20410;-71
2023/08/04 03:53:46;;;;;;;4.60;0.80;;;;;;;;;;5130835;27;20186;-69
2023/08/04 03:56:13;;;;;;;4.63;0.90;;;;;;;;;;5130604;27;20051;-69
2023/08/04 03:58:40;;;;;;;3.50;0.80;;;;;;;;;;5131281;27;20096;-69
2023/08/04 04:01:06;;;;;;;7.00;1.05;;;;;;;;;;5131078;27;20040;-71
2023/08/04 04:03:34;;;;;;;7.38;1.15;;;;;;;;;;5131353;27;20070;-69
2023/08/04 04:06:01;;;;;;;5.47;0.95;;;;;;;;;;5131201;27;20100;-69
2023/08/04 04:08:28;;;;;;;4.88;1.00;;;;;;;;;;5130908;27;20091;-69
2023/08/04 04:10:55;;;;;;;3.78;0.82;;;;;;;;;;5130704;27;20524;-70
2023/08/04 04:13:22;;;;;;;6.35;0.90;;;;;;;;;;5130784;27;20051;-69
2023/08/04 04:15:49;;;;;;;1.85;0.80;;;;;;;;;;5131442;27;20050;-71
2023/08/04 04:18:15;;;;;;;5.65;1.30;;;;;;;;;;5130709;27;20115;-70
2023/08/04 04:20:42;;;;;;;9.60;1.10;;;;;;;;;;5130549;27;20054;-69
2023/08/04 04:23:09;;;;;;;7.00;0.82;;;;;;;;;;5130223;27;20055;-69
2023/08/04 04:25:35;;;;;;;5.43;0.90;;;;;;;;;;5130741;27;20460;-69
2023/08/04 04:28:02;;;;;;;4.75;1.17;;;;;;;;;;5130773;27;20059;-71
2023/08/04 04:30:30;;;;;;;4.95;1.13;;;;;;;;;;5130502;27;20051;-70
2023/08/04 04:32:56;;;;;;;4.97;1.10;;;;;;;;;;5130400;27;20093;-69
2023/08/04 04:35:23;;;;;;;4.07;1.10;;;;;;;;;;5130722;27;20047;-76
2023/08/04 04:37:50;;;;;;;4.05;1.15;;;;;;;;;;5129939;27;20043;-70
2023/08/04 04:40:16;;;;;;;5.80;0.90;;;;;;;;;;5130668;27;20046;-69
2023/08/04 04:42:43;;;;;;;5.57;1.27;;;;;;;;;;5130168;27;20044;-70
2023/08/04 04:45:10;;;;;;;7.25;1.20;;;;;;;;;;5130784;27;20043;-70
2023/08/04 04:47:37;;;;;;;7.43;1.00;;;;;;;;;;5130014;27;20043;-70
2023/08/04 04:50:04;;;;;;;4.35;0.90;;;;;;;;;;5129225;27;20689;-73
2023/08/04 04:52:34;;;;;;;5.55;0.98;;;;;;;;;;5129990;27;20502;-70
2023/08/04 04:55:00;;;;;;;4.30;0.90;;;;;;;;;;5131166;27;20111;-71
2023/08/04 04:57:28;;;;;;;5.38;1.13;;;;;;;;;;5130041;27;20522;-72
2023/08/04 04:59:55;;;;;;;3.60;1.10;;;;;;;;;;5130107;27;20134;-69
2023/08/04 05:02:21;;;;;;;8.23;1.30;;;;;;;;;;5129687;27;20054;-75
2023/08/04 05:04:48;;;;;;;8.07;1.35;;;;;;;;;;5129955;27;20559;-69
2023/08/04 05:07:15;;;;;;;3.90;1.15;;;;;;;;;;5129286;27;20043;-69
2023/08/04 05:09:41;;;;;;;3.67;1.00;;;;;;;;;;5129716;27;20865;-70
2023/08/04 05:12:08;;;;;;;4.18;1.25;;;;;;;;;;5129417;27;20503;-72
2023/08/04 05:14:35;;;;;;;5.57;1.00;;;;;;;;;;5129685;27;20046;-69
2023/08/04 05:17:02;;;;;;;3.05;0.90;;;;;;;;;;5130020;27;20047;-69
2023/08/04 05:19:29;;;;;;;5.20;1.17;;;;;;;;;;5129853;27;20059;-72
2023/08/04 05:21:55;;;;;;;5.50;1.25;;;;;;;;;;5129514;27;20055;-69
2023/08/04 05:24:22;;;;;;;5.22;1.08;;;;;;;;;;5128952;27;20054;-71
2023/08/04 05:26:49;;;;;;;5.53;1.17;;;;;;;;;;5129193;27;20439;-69
2023/08/04 05:29:15;;;;;;;3.78;1.13;;;;;;;;;;5129148;27;20039;-70
2023/08/04 05:31:42;;;;;;;2.95;1.02;;;;;;;;;;5129612;27;20059;-72
2023/08/04 05:34:09;;;;;;;3.50;0.98;;;;;;;;;;5129905;27;20039;-69
2023/08/04 05:36:35;;;;;;;6.57;1.13;;;;;;;;;;5129583;27;20066;-73
2023/08/04 05:39:02;;;;;;;5.90;1.30;;;;;;;;;;5128818;27;20406;-72
2023/08/04 05:41:28;;;;;;;5.32;1.05;;;;;;;;;;5129213;28;20108;-71
2023/08/04 05:43:55;;;;;;;3.88;1.08;;;;;;;;;;5129199;28;20047;-74
2023/08/04 05:46:22;;;;;;;2.25;1.00;;;;;;;;;;5129562;28;20047;-69
2023/08/04 05:48:49;;;;;;;2.63;0.90;;;;;;;;;;5129167;28;20047;-73
2023/08/04 05:51:15;;;;;;;6.15;1.00;;;;;;;;;;5129148;28;20043;-71
2023/08/04 05:53:43;;;;;;;2.72;1.00;;;;;;;;;;5128786;28;20096;-78
2023/08/04 05:56:10;;;;;;;7.13;1.08;;;;;;;;;;5128974;28;20122;-77
2023/08/04 05:58:37;;;;;;;4.43;0.90;;;;;;;;;;5128876;28;20095;-79
2023/08/04 06:01:03;;;;;;;6.57;1.27;;;;;;;;;;5129637;27;20043;-72
2023/08/04 06:03:30;;;;;;;4.47;1.05;;;;;;;;;;5133199;27;20070;-79
2023/08/04 06:05:57;;;;;;;4.95;1.02;;;;;;;;;;5133282;27;20281;-71
2023/08/04 06:08:23;;;;;;;7.50;1.13;;;;;;;;;;5133025;27;20054;-72
2023/08/04 06:10:50;;;;;;;4.00;1.00;;;;;;;;;;5133372;27;20410;-73
2023/08/04 06:13:17;;;;;;;6.45;1.00;;;;;;;;;;5134951;27;20100;-73
2023/08/04 06:15:43;;;;;;;2.53;0.88;;;;;;;;;;5133317;27;20050;-76
2023/08/04 06:18:10;;;;;;;6.32;1.20;;;;;;;;;;5132745;27;20123;-71
2023/08/04 06:20:37;;;;;;;2.47;1.02;;;;;;;;;;5133156;27;20069;-71
2023/08/04 06:23:04;;;;;;;3.70;0.95;;;;;;;;;;5132474;27;20137;-72
2023/08/04 06:25:31;;;;;;;3.70;0.95;;;;;;;;;;5132951;27;20414;-75
2023/08/04 06:27:58;;;;;;;7.00;1.02;;;;;;;;;;5132482;27;20500;-77
2023/08/04 06:30:26;;;;;;;4.78;1.00;;;;;;;;;;5132795;27;20043;-71
2023/08/04 06:32:52;;;;;;;8.65;1.33;;;;;;;;;;5132610;27;20103;-72
2023/08/04 06:35:19;;;;;;;4.05;0.90;;;;;;;;;;5132566;27;20051;-76
2023/08/04 06:37:46;;;;;;;5.35;1.20;;;;;;;;;;5131570;27;20051;-72
2023/08/04 06:40:12;;;;;;;4.05;1.08;;;;;;;;;;5132718;27;20043;-75
2023/08/04 06:42:39;;;;;;;3.50;1.00;;;;;;;;;;5132563;27;20483;-69
2023/08/04 06:45:06;;;;;;;4.13;1.08;;;;;;;;;;5132255;27;20050;-71
2023/08/04 06:47:33;;;;;;;1.80;0.93;;;;;;;;;;5132565;27;20043;-74
2023/08/04 06:50:00;;;;;;;4.43;1.13;;;;;;;;;;5132090;27;20047;-69
2023/08/04 06:52:27;;;;;;;3.65;1.02;;;;;;;;;;5132262;27;20053;-71
2023/08/04 06:54:54;;;;;;;4.40;1.00;;;;;;;;;;5131990;27;20050;-70
2023/08/04 06:57:20;;;;;;;5.05;1.17;;;;;;;;;;5131917;27;20129;-68
2023/08/04 06:59:47;;;;;;;7.25;1.10;;;;;;;;;;5132144;27;20043;-72
2023/08/04 07:02:14;;;;;;;4.47;1.05;;;;;;;;;;5132158;27;20419;-69
2023/08/04 07:04:41;;;;;;;5.38;0.88;;;;;;;;;;5132169;27;20043;-69
2023/08/04 07:07:07;;;;;;;3.22;0.90;;;;;;;;;;5132153;27;20116;-69
2023/08/04 07:09:34;;;;;;;4.68;1.10;;;;;;;;;;5131374;27;20044;-69
2023/08/04 07:12:01;;;;;;;2.67;1.00;;;;;;;;;;5131952;27;20243;-70
2023/08/04 07:14:27;;;;;;;3.95;1.17;;;;;;;;;;5131211;27;20047;-72
2023/08/04 07:16:54;;;;;;;5.40;1.30;;;;;;;;;;5131783;27;20043;-70
2023/08/04 07:19:20;;;;;;;4.95;1.20;;;;;;;;;;5131979;27;20053;-69
2023/08/04 07:21:47;;;;;;;5.97;1.13;;;;;;;;;;5131684;27;20044;-70
2023/08/04 07:24:14;;;;;;;3.22;0.98;;;;;;;;;;5131508;27;20051;-70
2023/08/04 07:26:41;;;;;;;5.25;1.30;;;;;;;;;;5131637;27;20259;-69
2023/08/04 07:29:07;;;;;;;7.00;1.23;;;;;;;;;;5131438;27;20047;-71
2023/08/04 07:31:34;;;;;;;3.33;1.02;;;;;;;;;;5131709;27;20104;-75
2023/08/04 07:34:01;;;;;;;2.83;1.10;;;;;;;;;;5131213;27;20478;-73
2023/08/04 07:36:28;;;;;;;5.88;1.10;;;;;;;;;;5131690;27;20487;-71
2023/08/04 07:38:55;;;;;;;4.32;0.93;;;;;;;;;;5131110;27;20039;-71
2023/08/04 07:41:24;;;;;;;4.60;1.13;;;;;;;;;;5131760;27;20126;-74
2023/08/04 07:43:52;;;;;;;4.70;1.13;;;;;;;;;;5131071;27;20050;-73
2023/08/04 07:46:26;;;;;;;3.78;0.95;;;;;;;;;;5131533;27;20047;-71
2023/08/04 07:48:54;;;;;;;1.88;0.80;;;;;;;;;;5131142;27;20047;-71
2023/08/04 07:51:21;;;;;;;3.70;1.17;;;;;;;;;;5131065;27;20049;-75
2023/08/04 07:53:48;;;;;;;7.45;0.80;;;;;;;;;;5112311;27;20431;-71
2023/08/04 07:56:15;;;;;;;3.42;1.00;;;;;;;;;;5130045;27;20047;-71
2023/08/04 07:58:42;;;;;;;3.42;1.27;;;;;;;;;;5130244;27;20050;-72
2023/08/04 08:01:09;;;;;;;4.72;1.10;;;;;;;;;;5130867;27;20043;-71
2023/08/04 08:03:36;;;;;;;3.97;1.00;;;;;;;;;;5130934;27;20090;-74
2023/08/04 08:06:03;;;;;;;3.08;0.90;;;;;;;;;;5130194;27;20146;-74
2023/08/04 08:08:31;;;;;;;4.07;1.00;;;;;;;;;;5129678;27;20311;-71
2023/08/04 08:10:58;;;;;;;6.07;1.10;;;;;;;;;;5130813;27;20047;-70
2023/08/04 08:13:25;;;;;;;3.95;1.05;;;;;;;;;;5112478;27;20089;-77
2023/08/04 08:15:52;;;;;;;3.90;1.15;;;;;;;;;;5112491;27;20627;-72
2023/08/04 08:18:18;;;;;;;2.28;1.00;;;;;;;;;;5129099;27;20039;-71
2023/08/04 08:20:45;;;;;;;2.33;1.20;;;;;;;;;;5132335;27;20046;-70
2023/08/04 08:23:12;;;;;;;3.88;1.23;;;;;;;;;;5130271;27;20058;-71
2023/08/04 08:25:39;;;;;;;5.57;1.15;;;;;;;;;;5128800;27;20051;-70
2023/08/04 08:28:05;;;;;;;3.50;1.20;;;;;;;;;;5129907;27;20047;-72
2023/08/04 08:30:32;;;;;;;3.42;0.95;;;;;;;;;;5128456;27;20440;-71
2023/08/04 08:32:59;;;;;;;5.53;1.10;;;;;;;;;;5135806;27;20047;-70
2023/08/04 08:35:25;;;;;;;2.97;0.90;;;;;;;;;;5131608;27;20047;-71
2023/08/04 08:37:52;;;;;;;1.92;0.80;;;;;;;;;;5130068;27;20049;-71
2023/08/04 08:40:20;;;;;;;3.10;1.00;;;;;;;;;;5111826;27;20662;-71
2023/08/04 08:42:46;;;;;;;3.72;0.93;;;;;;;;;;5130384;27;20051;-71
2023/08/04 08:45:13;;;;;;;1.70;0.88;;;;;;;;;;5133629;27;20053;-71
2023/08/04 08:47:44;;;;;;;4.03;1.10;;;;;;;;;;5130299;27;20585;-72
2023/08/04 08:50:12;;;;;;;3.15;0.98;;;;;;;;;;5130210;27;20039;-74
2023/08/04 08:52:39;;;;;;;3.40;1.10;;;;;;;;;;5129835;27;20520;-71
2023/08/04 08:55:06;;;;;;;1.70;0.90;;;;;;;;;;5130934;27;20047;-73
2023/08/04 08:57:34;;;;;;;2.83;1.15;;;;;;;;;;5130008;27;20051;-71
2023/08/04 09:00:02;;;;;;;3.80;1.00;;;;;;;;;;5131540;27;20243;-72
2023/08/04 09:02:29;;;;;;;3.88;1.05;;;;;;;;;;5130196;27;20142;-73
2023/08/04 09:04:56;;;;;;;2.78;0.90;;;;;;;;;;5131511;27;20050;-72
2023/08/04 09:07:23;;;;;;;4.25;1.00;;;;;;;;;;5131923;27;20074;-72
2023/08/04 09:09:50;;;;;;;3.28;1.20;;;;;;;;;;5134999;27;20267;-72
2023/08/04 09:12:17;;;;;;;1.92;0.90;;;;;;;;;;5112374;27;20047;-72
2023/08/04 09:15:03;;;;;;;5.03;1.25;;;;;;;;;;5130506;27;20082;-72
2023/08/04 09:17:31;;;;;;;4.78;1.15;;;;;;;;;;5129829;27;20043;-71
2023/08/04 09:19:59;;;;;;;3.20;1.10;;;;;;;;;;5129057;27;20134;-70
2023/08/04 09:22:26;;;;;;;3.42;0.80;;;;;;;;;;5127343;27;20088;-72
2023/08/04 09:24:54;;;;;;;3.20;0.90;;;;;;;;;;5129626;27;20054;-72
2023/08/04 09:27:43;;;;;;;2.55;0.95;;;;;;;;;;5127227;27;20051;-72
2023/08/04 09:30:10;;;;;;;3.42;0.80;;;;;;;;;;5131372;27;20049;-72
2023/08/04 09:32:42;;;;;;;2.63;0.90;;;;;;;;;;5128583;27;20083;-71
2023/08/04 09:35:09;;;;;;;3.35;0.88;;;;;;;;;;5128554;27;20490;-71
2023/08/04 09:37:37;;;;;;;2.75;1.20;;;;;;;;;;5128318;27;20126;-71
2023/08/04 09:40:13;;;;;;;3.38;0.90;;;;;;;;;;5129138;27;20047;-71
2023/08/04 09:42:41;;;;;;;5.22;1.20;;;;;;;;;;5129698;28;20043;-71
2023/08/04 09:45:13;;;;;;;2.30;0.80;;;;;;;;;;5129180;28;20046;-71
2023/08/04 09:47:40;;;;;;;5.10;0.90;;;;;;;;;;5129124;28;20047;-71
2023/08/04 09:50:10;;;;;;;2.92;1.00;;;;;;;;;;5133695;28;20242;-71
2023/08/04 09:52:37;;;;;;;4.15;1.00;;;;;;;;;;5134521;28;20043;-71
2023/08/04 09:55:10;;;;;;;3.00;0.90;;;;;;;;;;5139925;28;20353;-70
2023/08/04 09:57:38;;;;;;;2.90;1.17;;;;;;;;;;5139954;28;20328;-71
2023/08/04 10:00:09;;;;;;;5.55;1.10;;;;;;;;;;5139055;28;20074;-71
2023/08/04 10:02:36;;;;;;;4.68;0.80;;;;;;;;;;5139954;28;20039;-70
2023/08/04 10:05:04;;;;;;;4.15;0.95;;;;;;;;;;5139250;28;20047;-70
2023/08/04 10:07:33;;;;;;;2.10;0.90;;;;;;;;;;5134866;28;20046;-71
2023/08/04 10:10:03;;;;;;;5.60;1.27;;;;;;;;;;5139659;28;20102;-71
2023/08/04 10:12:34;;;;;;;2.22;0.90;;;;;;;;;;5137705;28;20088;-71
2023/08/04 10:15:01;;;;;;;4.78;1.17;;;;;;;;;;5129310;28;20047;-71
2023/08/04 10:17:27;;;;;;;2.35;0.88;;;;;;;;;;5128583;28;20467;-71
2023/08/04 10:20:05;;;;;;;3.38;0.80;;;;;;;;;;5129111;28;20609;-71
2023/08/04 10:22:33;;;;;;;3.88;0.93;;;;;;;;;;5127048;27;20517;-70
2023/08/04 10:25:00;;;;;;;4.07;1.10;;;;;;;;;;5130519;27;20089;-71
2023/08/04 10:27:28;;;;;;;2.30;0.85;;;;;;;;;;5138865;28;20302;-71
2023/08/04 10:30:11;;;;;;;2.40;0.80;;;;;;;;;;5131209;28;20074;-70
2023/08/04 10:32:39;;;;;;;2.72;0.80;;;;;;;;;;5136101;28;20542;-72
2023/08/04 10:35:18;;;;;;;8.95;1.20;;;;;;;;;;5139363;27;20053;-72
2023/08/04 10:37:56;;;;;;;3.88;0.82;;;;;;;;;;5135813;27;20054;-71
2023/08/04 10:40:27;;;;;;;1.80;1.10;;;;;;;;;;5129294;28;20043;-71
2023/08/04 10:43:04;;;;;;;4.65;1.20;;;;;;;;;;5122729;28;20047;-72
2023/08/04 10:45:55;;;;;;;1.30;0.80;;;;;;;;;;5129531;28;20126;-71
2023/08/04 10:48:25;;;;;;;2.58;1.10;;;;;;;;;;5130262;27;20043;-71
2023/08/04 10:50:52;;;;;;;3.17;1.00;;;;;;;;;;5133398;27;20138;-72
2023/08/04 10:53:19;;;;;;;3.03;0.90;;;;;;;;;;5132334;27;20527;-72
2023/08/04 10:55:57;;;;;;;2.45;0.90;;;;;;;;;;5133008;27;20051;-72
2023/08/04 10:58:25;;;;;;;4.50;1.10;;;;;;;;;;5132492;27;20088;-71
2023/08/04 11:00:53;;;;;;;1.23;0.70;;;;;;;;;;5133065;27;20047;-72
2023/08/04 11:03:28;;;;;;;5.65;1.10;;;;;;;;;;5131771;27;20047;-72
2023/08/04 11:05:55;;;;;;;3.03;1.02;;;;;;;;;;5132845;27;20051;-73
2023/08/04 11:08:23;;;;;;;3.53;1.15;;;;;;;;;;5131791;27;20130;-71
2023/08/04 11:10:52;;;;;;;4.07;1.25;;;;;;;;;;5133288;27;20050;-72
2023/08/04 11:13:21;;;;;;;4.65;1.40;;;;;;;;;;5131209;27;20051;-73
2023/08/04 11:15:48;;;;;;;2.25;0.98;;;;;;;;;;5112446;28;20048;-72
2023/08/04 11:18:21;;;;;;;5.60;0.98;;;;;;;;;;5111601;28;20048;-71
2023/08/04 11:20:47;;;;;;;2.35;1.00;;;;;;;;;;5114650;28;20048;-72
2023/08/04 11:23:22;;;;;;;3.33;1.08;;;;;;;;;;5111218;28;20075;-72
2023/08/04 11:25:49;;;;;;;1.88;0.90;;;;;;;;;;5116389;28;20054;-71
2023/08/04 11:28:15;;;;;;;4.65;0.90;;;;;;;;;;5120525;28;20111;-71
2023/08/04 11:30:42;;;;;;;2.13;0.93;;;;;;;;;;5109784;28;20672;-71
2023/08/04 11:33:09;;;;;;;4.25;1.10;;;;;;;;;;5112952;28;20480;-71
2023/08/04 11:35:35;;;;;;;4.90;1.20;;;;;;;;;;5111189;28;20104;-72
2023/08/04 11:38:05;;;;;;;3.33;1.00;;;;;;;;;;5108872;28;20047;-72
2023/08/04 11:40:34;;;;;;;6.77;1.63;;;;;;;;;;5108109;28;20491;-72
2023/08/04 11:43:00;;;;;;;5.82;1.10;;;;;;;;;;5109605;28;20096;-71
2023/08/04 11:45:31;;;;;;;7.05;1.58;;;;;;;;;;5110828;28;20043;-71
2023/08/04 11:47:58;;;;;;;3.03;1.23;;;;;;;;;;5109479;28;20048;-72
2023/08/04 11:50:25;;;;;;;4.70;1.23;;;;;;;;;;5110076;28;20063;-71
2023/08/04 11:52:52;;;;;;;5.18;1.00;;;;;;;;;;5110646;28;20063;-72
2023/08/04 11:55:19;;;;;;;3.22;1.25;;;;;;;;;;5111056;28;20075;-71
2023/08/04 11:57:50;;;;;;;3.85;1.10;;;;;;;;;;5110239;28;20474;-71
2023/08/04 12:00:33;;;;;;;2.20;1.05;;;;;;;;;;5110664;28;20039;-72
2023/08/04 12:03:02;;;;;;;3.80;1.10;;;;;;;;;;5110882;28;20055;-71
2023/08/04 12:05:36;;;;;;;3.40;1.10;;;;;;;;;;5110768;28;20426;-73
2023/08/04 12:08:12;;;;;;;4.65;1.20;;;;;;;;;;5110063;28;20082;-72
2023/08/04 12:10:39;;;;;;;2.53;0.85;;;;;;;;;;5109221;28;20077;-72
2023/08/04 12:13:06;;;;;;;1.85;0.90;;;;;;;;;;5110583;28;20100;-72
2023/08/04 12:15:52;;;;;;;4.30;1.02;;;;;;;;;;5110186;28;20054;-72
2023/08/04 12:18:26;;;;;;;5.60;1.27;;;;;;;;;;5110148;28;20543;-72
2023/08/04 12:20:53;;;;;;;4.85;0.90;;;;;;;;;;5110314;28;20575;-72
2023/08/04 12:23:19;;;;;;;2.92;1.00;;;;;;;;;;5110126;28;20689;-72
2023/08/04 12:25:46;;;;;;;2.45;1.00;;;;;;;;;;5110562;28;20435;-71
2023/08/04 12:28:13;;;;;;;4.88;1.08;;;;;;;;;;5110043;28;20367;-71
2023/08/04 12:30:40;;;;;;;5.63;1.10;;;;;;;;;;5110623;28;20046;-72
2023/08/04 12:33:06;;;;;;;3.50;1.10;;;;;;;;;;5110605;28;20047;-71
2023/08/04 12:35:33;;;;;;;4.07;0.90;;;;;;;;;;5126586;27;20039;-71
2023/08/04 12:38:04;;;;;;;1.52;0.90;;;;;;;;;;5129924;27;20046;-72
2023/08/04 12:40:31;;;;;;;2.63;1.05;;;;;;;;;;5131109;27;20134;-71
2023/08/04 12:42:58;;;;;;;2.92;0.90;;;;;;;;;;5130138;27;20617;-71
2023/08/04 12:45:25;;;;;;;2.90;0.80;;;;;;;;;;5130254;27;20043;-70
2023/08/04 12:47:52;;;;;;;0.80;0.70;;;;;;;;;;5130418;27;20049;-70
2023/08/04 12:50:19;;;;;;;4.55;0.90;;;;;;;;;;5130048;27;20066;-72
2023/08/04 12:52:46;;;;;;;1.55;0.80;;;;;;;;;;5129511;27;20490;-71
2023/08/04 12:55:12;;;;;;;1.67;0.88;;;;;;;;;;5130752;27;20051;-70
2023/08/04 12:57:39;;;;;;;2.90;0.80;;;;;;;;;;5129805;27;20452;-72
2023/08/04 13:00:07;;;;;;;2.33;0.95;;;;;;;;;;5129892;27;20104;-71
2023/08/04 13:02:33;;;;;;;1.98;0.70;;;;;;;;;;5130209;27;20411;-72
2023/08/04 13:05:00;;;;;;;3.15;1.00;;;;;;;;;;5130502;27;20087;-71
2023/08/04 13:07:27;;;;;;;2.28;0.68;;;;;;;;;;5129520;27;20043;-71
2023/08/04 13:09:53;;;;;;;2.38;0.60;;;;;;;;;;5129861;27;20047;-73
2023/08/04 13:12:20;;;;;;;3.88;0.93;;;;;;;;;;5129418;27;20047;-71
2023/08/04 13:14:47;;;;;;;1.50;0.65;;;;;;;;;;5130075;27;20043;-71
2023/08/04 13:17:14;;;;;;;1.20;0.70;;;;;;;;;;5130253;27;20074;-71
2023/08/04 13:19:40;;;;;;;2.53;0.95;;;;;;;;;;5136614;27;20398;-70
2023/08/04 13:22:07;;;;;;;4.53;0.93;;;;;;;;;;5135848;27;20047;-71
2023/08/04 13:24:34;;;;;;;4.38;0.85;;;;;;;;;;5141162;27;20327;-71
2023/08/04 13:27:03;;;;;;;1.92;0.80;;;;;;;;;;5141727;27;20042;-72
2023/08/04 13:29:29;;;;;;;2.00;1.00;;;;;;;;;;5141016;27;20055;-71
2023/08/04 13:31:56;;;;;;;2.67;1.20;;;;;;;;;;5129939;27;20077;-71
2023/08/04 13:34:23;;;;;;;3.45;1.17;;;;;;;;;;5139533;27;20080;-71
2023/08/04 13:36:49;;;;;;;3.05;0.90;;;;;;;;;;5139561;27;20251;-71
2023/08/04 13:39:16;;;;;;;1.20;0.90;;;;;;;;;;5140534;27;20111;-74
2023/08/04 13:41:43;;;;;;;2.17;0.82;;;;;;;;;;5140794;27;20049;-72
2023/08/04 13:44:09;;;;;;;1.42;0.90;;;;;;;;;;5141048;28;20085;-74
2023/08/04 13:46:36;;;;;;;2.63;0.90;;;;;;;;;;5140654;28;20047;-73
2023/08/04 13:49:02;;;;;;;2.95;0.80;;;;;;;;;;5139768;28;20046;-71
2023/08/04 13:51:29;;;;;;;1.90;0.60;;;;;;;;;;5140707;28;20051;-71
2023/08/04 13:53:56;;;;;;;1.02;0.73;;;;;;;;;;5140520;28;20046;-72
2023/08/04 13:56:22;;;;;;;1.50;0.70;;;;;;;;;;5140565;28;20057;-71
2023/08/04 13:58:52;;;;;;;2.15;0.73;;;;;;;;;;5140327;28;20047;-71
2023/08/04 14:01:19;;;;;;;2.28;0.77;;;;;;;;;;5139761;28;20084;-71
2023/08/04 14:03:45;;;;;;;1.38;0.60;;;;;;;;;;5140398;28;20047;-71
2023/08/04 14:06:12;;;;;;;1.77;0.70;;;;;;;;;;5140779;28;20089;-73
2023/08/04 14:08:39;;;;;;;2.13;0.77;;;;;;;;;;5140601;27;20043;-70
2023/08/04 14:11:05;;;;;;;2.25;0.77;;;;;;;;;;5141069;27;20047;-73
2023/08/04 14:13:32;;;;;;;1.35;0.90;;;;;;;;;;5141080;28;20071;-71
2023/08/04 14:16:09;;;;;;;2.92;0.70;;;;;;;;;;5141154;28;20047;-70
2023/08/04 14:18:36;;;;;;;1.38;0.70;;;;;;;;;;5127034;28;20050;-72
2023/08/04 14:21:03;;;;;;;1.33;0.88;;;;;;;;;;5141088;28;20050;-72
2023/08/04 14:23:30;;;;;;;2.38;0.80;;;;;;;;;;5142744;27;20054;-71
2023/08/04 14:25:57;;;;;;;2.30;0.70;;;;;;;;;;5144292;27;20057;-72
2023/08/04 14:28:24;;;;;;;1.95;0.70;;;;;;;;;;5142916;27;20047;-72
2023/08/04 14:30:51;;;;;;;1.90;0.63;;;;;;;;;;5144066;27;20047;-71
2023/08/04 14:33:18;;;;;;;1.13;0.70;;;;;;;;;;5144137;27;20319;-72
2023/08/04 14:35:44;;;;;;;2.22;0.80;;;;;;;;;;5143165;27;20258;-72
2023/08/04 14:38:11;;;;;;;1.80;0.80;;;;;;;;;;5144256;27;20049;-72
2023/08/04 14:40:38;;;;;;;1.48;0.70;;;;;;;;;;5143268;27;20084;-71
2023/08/04 14:43:04;;;;;;;1.60;0.63;;;;;;;;;;5143970;27;20043;-71
2023/08/04 14:45:31;;;;;;;1.20;0.60;;;;;;;;;;5142855;27;20283;-71